This is the latest recevied weather packets stored in our database for station/object OE6PWE-13. If no packets are shown the sender has not sent any weather packets the latest 10 day(s).
| Time | Temp. | Humidity | Pressure | Rain* | Wind** | Luminosity | Snow |
|---|---|---|---|---|---|---|---|
| 1777357820 | 11.67° C | 76% | 1020 hPa | 0 mm | - | - | - |
| 1777356913 | 10.56° C | 80% | 1020 hPa | 0 mm | - | - | - |
| 1777356021 | 10° C | 77% | 1020 hPa | 0 mm | - | - | - |
| 1777355113 | 9.44° C | 81% | 1020 hPa | 0 mm | - | - | - |
| 1777354222 | 8.33° C | 84% | 1020 hPa | 0 mm | - | - | - |
| 1777353313 | 7.78° C | 87% | 1020 hPa | 0 mm | - | - | - |
| 1777352422 | 6.67° C | 89% | 1020 hPa | 0 mm | - | - | - |
| 1777351513 | 6.67° C | 90% | 1020 hPa | 0 mm | - | - | - |
| 1777349714 | 6.67° C | 90% | 1020 hPa | 0 mm | - | - | - |
| 1777347913 | 6.67° C | 89% | 1020 hPa | 0 mm | - | - | - |
| 1777347020 | 7.22° C | 88% | 1020 hPa | 0 mm | - | - | - |
| 1777346114 | 7.22° C | 86% | 1020 hPa | 0 mm | - | - | - |
| 1777345220 | 7.78° C | 85% | 1020 hPa | 0 mm | - | - | - |
| 1777344314 | 7.78° C | 85% | 1020 hPa | 0 mm | - | - | - |
| 1777343420 | 7.78° C | 85% | 1020 hPa | 0 mm | - | - | - |
| 1777342513 | 7.78° C | 86% | 1020 hPa | 0 mm | - | - | - |
| 1777341619 | 7.78° C | 87% | 1020 hPa | 0 mm | - | - | - |
| 1777340713 | 7.78° C | 88% | 1020 hPa | 0 mm | - | - | - |
| 1777339820 | 7.78° C | 87% | 1020 hPa | 0 mm | - | - | - |
| 1777338913 | 7.78° C | 87% | 1020 hPa | 0 mm | - | - | - |
| 1777338021 | 7.78° C | 86% | 1020 hPa | 0 mm | - | - | - |
| 1777337113 | 8.33° C | 85% | 1020 hPa | 0 mm | - | - | - |
| 1777336219 | 8.33° C | 85% | 1020 hPa | 0 mm | - | - | - |
| 1777335313 | 8.33° C | 83% | 1020 hPa | 0 mm | - | - | - |
| 1777333513 | 8.89° C | 82% | 1020 hPa | 0 mm | - | - | - |
* Rain latest hour (hover to see other rain measurements)
** Current wind speed in m/s (hover to see current wind gust speed)